createdAt,value
2019-05-18T00:02:08.397Z,11.60
2019-05-18T00:05:03.976Z,11.60
2019-05-18T00:07:54.788Z,11.60
2019-05-18T00:10:45.372Z,11.70
2019-05-18T00:13:35.221Z,11.60
2019-05-18T00:16:24.885Z,11.60
2019-05-18T00:19:15.743Z,11.60
2019-05-18T00:22:05.127Z,11.60
2019-05-18T00:24:56.328Z,11.50
2019-05-18T00:27:46.171Z,11.60
2019-05-18T00:30:35.265Z,11.60
2019-05-18T00:33:24.777Z,11.60
2019-05-18T00:36:13.911Z,11.40
2019-05-18T00:39:06.266Z,11.40
2019-05-18T00:42:03.432Z,11.50
2019-05-18T00:44:52.578Z,11.40
2019-05-18T00:47:42.507Z,11.40
2019-05-18T00:50:32.547Z,11.30
2019-05-18T00:53:23.147Z,11.20
2019-05-18T00:56:12.619Z,11.10
2019-05-18T00:59:01.825Z,10.90
2019-05-18T01:01:51.018Z,10.70
2019-05-18T01:04:40.947Z,10.60
2019-05-18T01:07:31.772Z,10.80
2019-05-18T01:10:22.771Z,10.80
2019-05-18T01:13:11.685Z,10.70
2019-05-18T01:16:00.458Z,10.70
2019-05-18T01:18:49.919Z,10.80
2019-05-18T01:21:39.701Z,10.90
2019-05-18T01:24:29.570Z,10.90
2019-05-18T01:27:19.828Z,10.90
2019-05-18T01:30:11.263Z,10.90
2019-05-18T01:33:00.898Z,10.80
2019-05-18T01:35:50.355Z,10.80
2019-05-18T01:38:41.195Z,10.70
2019-05-18T01:41:29.911Z,10.60
2019-05-18T01:44:20.451Z,10.50
2019-05-18T01:47:09.679Z,10.50
2019-05-18T01:49:58.421Z,10.40
2019-05-18T01:52:48.473Z,10.40
2019-05-18T01:55:39.224Z,10.30
2019-05-18T01:58:29.072Z,10.30
2019-05-18T02:01:18.375Z,10.20
2019-05-18T02:04:08.403Z,10.20
2019-05-18T02:06:58.333Z,10.10
2019-05-18T02:09:49.031Z,10.00
2019-05-18T02:12:38.085Z,10.00
2019-05-18T02:15:27.199Z,10.00
2019-05-18T02:18:28.693Z,10.00
2019-05-18T02:21:08.019Z,10.00
2019-05-18T02:23:59.131Z,10.00
2019-05-18T02:26:49.745Z,10.00
2019-05-18T02:29:40.339Z,10.00
2019-05-18T02:32:29.239Z,9.90
2019-05-18T02:35:18.300Z,9.90
2019-05-18T02:38:24.434Z,9.80
2019-05-18T02:41:14.872Z,9.70
2019-05-18T02:44:06.356Z,9.70
2019-05-18T02:46:55.980Z,9.70
2019-05-18T02:49:45.377Z,9.60
2019-05-18T02:52:34.635Z,9.60
2019-05-18T02:55:23.367Z,9.60
2019-05-18T02:58:14.362Z,9.50
2019-05-18T03:01:05.924Z,9.50
2019-05-18T03:03:56.975Z,9.40
2019-05-18T03:06:46.123Z,9.40
2019-05-18T03:09:36.745Z,9.40
2019-05-18T03:12:26.138Z,9.40
2019-05-18T03:15:15.211Z,9.30
2019-05-18T03:18:04.911Z,9.30
2019-05-18T03:20:55.765Z,9.30
2019-05-18T03:23:47.080Z,9.30
2019-05-18T03:26:38.720Z,9.30
2019-05-18T03:29:28.780Z,9.30
2019-05-18T03:32:19.973Z,9.20
2019-05-18T03:35:11.451Z,9.20
2019-05-18T03:38:01.362Z,9.10
2019-05-18T03:40:53.601Z,9.10
2019-05-18T03:43:44.590Z,9.00
2019-05-18T03:46:34.259Z,9.00
2019-05-18T03:49:27.117Z,8.90
2019-05-18T03:52:13.564Z,8.90
2019-05-18T03:55:02.877Z,8.90
2019-05-18T03:57:53.676Z,8.90
2019-05-18T04:00:44.518Z,8.90
2019-05-18T04:03:35.288Z,8.90
2019-05-18T04:06:24.607Z,8.90
2019-05-18T04:09:14.858Z,8.90
2019-05-18T04:12:04.915Z,8.80
2019-05-18T04:14:54.218Z,8.90
2019-05-18T04:17:45.930Z,9.00
2019-05-18T04:20:35.984Z,9.00
2019-05-18T04:23:30.824Z,9.00
2019-05-18T04:26:19.770Z,8.90
2019-05-18T04:29:10.072Z,8.90
2019-05-18T04:32:00.753Z,8.90
2019-05-18T04:34:50.971Z,9.00
2019-05-18T04:37:40.383Z,9.10
2019-05-18T04:40:30.551Z,9.10
2019-05-18T04:43:19.837Z,9.20
2019-05-18T04:46:09.488Z,9.30
2019-05-18T04:48:58.793Z,9.40
2019-05-18T04:51:48.146Z,9.50
2019-05-18T04:54:37.698Z,9.60
2019-05-18T04:57:28.112Z,9.80
2019-05-18T05:00:18.649Z,9.80
2019-05-18T05:03:12.589Z,9.80
2019-05-18T05:06:01.982Z,9.80
2019-05-18T05:08:52.342Z,10.00
2019-05-18T05:11:41.358Z,10.20
2019-05-18T05:14:30.206Z,10.40
2019-05-18T05:17:19.404Z,10.60
2019-05-18T05:20:19.416Z,10.70
2019-05-18T05:23:00.995Z,10.90
2019-05-18T05:25:51.511Z,11.10
2019-05-18T05:28:42.371Z,11.30
2019-05-18T05:31:31.901Z,11.40
2019-05-18T05:34:24.042Z,11.50
2019-05-18T05:37:14.863Z,11.70
2019-05-18T05:40:05.681Z,11.80
2019-05-18T05:42:56.867Z,12.00
2019-05-18T05:45:45.648Z,12.10
2019-05-18T05:48:34.795Z,12.20
2019-05-18T05:51:24.557Z,12.40
2019-05-18T05:54:13.563Z,12.50
2019-05-18T05:57:03.209Z,12.70
2019-05-18T05:59:51.794Z,12.80
2019-05-18T06:02:41.391Z,13.00
2019-05-18T06:05:31.256Z,13.10
2019-05-18T06:08:22.390Z,13.20
2019-05-18T06:11:12.628Z,13.30
2019-05-18T06:14:08.170Z,13.30
2019-05-18T06:16:57.634Z,13.40
2019-05-18T06:19:47.330Z,13.70
2019-05-18T06:22:36.219Z,14.00
2019-05-18T06:25:26.023Z,14.30
2019-05-18T06:28:22.634Z,14.60
2019-05-18T06:31:11.560Z,14.80
2019-05-18T06:34:01.279Z,15.20
2019-05-18T06:36:50.613Z,15.50
2019-05-18T06:39:39.253Z,16.00
2019-05-18T06:42:30.175Z,16.20
2019-05-18T06:45:21.284Z,16.70
2019-05-18T06:48:13.170Z,17.00
2019-05-18T06:51:07.182Z,17.10
2019-05-18T06:53:54.255Z,17.70
2019-05-18T06:56:45.056Z,18.10
2019-05-18T06:59:37.367Z,18.30
2019-05-18T07:02:35.550Z,18.20
2019-05-18T07:05:25.946Z,18.40
2019-05-18T07:08:16.142Z,18.50
2019-05-18T07:11:06.157Z,18.90
2019-05-18T07:13:55.771Z,19.10
2019-05-18T07:16:46.315Z,19.10
2019-05-18T07:19:36.301Z,19.30
2019-05-18T07:22:25.736Z,19.30
2019-05-18T07:25:16.881Z,19.20
2019-05-18T07:28:06.710Z,19.50
2019-05-18T07:30:56.339Z,19.50
2019-05-18T07:33:52.670Z,19.60
2019-05-18T07:36:42.429Z,20.20
2019-05-18T07:39:31.409Z,20.60
2019-05-18T07:42:22.069Z,21.10
2019-05-18T07:45:11.213Z,21.30
2019-05-18T07:48:02.915Z,21.70
2019-05-18T07:50:52.460Z,21.40
2019-05-18T07:53:43.097Z,21.90
2019-05-18T07:56:33.913Z,22.30
2019-05-18T07:59:23.607Z,21.60
2019-05-18T08:02:13.252Z,22.00
2019-05-18T08:05:04.284Z,22.60
2019-05-18T08:07:54.660Z,23.00
2019-05-18T08:10:44.595Z,23.20
2019-05-18T08:13:34.668Z,23.20
2019-05-18T08:16:24.588Z,23.50
2019-05-18T08:19:15.430Z,23.90
2019-05-18T08:22:06.444Z,24.20
2019-05-18T08:24:56.975Z,24.40
2019-05-18T08:27:48.919Z,24.70
2019-05-18T08:30:38.170Z,24.90
2019-05-18T08:33:26.917Z,24.90
2019-05-18T08:36:15.502Z,24.90
2019-05-18T08:39:05.529Z,24.30
2019-05-18T08:42:02.094Z,24.20
2019-05-18T08:44:52.057Z,23.20
2019-05-18T08:47:41.694Z,24.10
2019-05-18T08:50:31.081Z,23.80
2019-05-18T08:53:21.619Z,23.50
2019-05-18T08:56:12.887Z,24.40
2019-05-18T09:01:52.625Z,25.80
2019-05-18T09:04:42.998Z,26.10
2019-05-18T09:07:31.962Z,26.40
2019-05-18T09:10:21.749Z,26.50
2019-05-18T09:15:58.603Z,27.60
2019-05-18T09:18:48.282Z,25.80
2019-05-18T09:21:37.450Z,24.30
2019-05-18T09:27:23.685Z,23.40
2019-05-18T09:30:13.999Z,23.40
2019-05-18T09:33:03.879Z,23.10
2019-05-18T09:35:53.087Z,23.10
2019-05-18T09:38:41.839Z,23.20
2019-05-18T09:41:30.774Z,23.20
2019-05-18T09:44:21.677Z,22.90
2019-05-18T09:47:11.472Z,22.80
2019-05-18T09:50:00.799Z,22.70
2019-05-18T09:52:50.482Z,22.80
2019-05-18T09:55:40.603Z,22.80
2019-05-18T09:58:31.581Z,22.60
2019-05-18T10:01:22.335Z,22.50
2019-05-18T10:04:14.270Z,22.40
2019-05-18T10:07:04.565Z,22.40
2019-05-18T10:09:54.643Z,22.30
2019-05-18T10:12:45.291Z,22.20
2019-05-18T10:15:34.659Z,22.00
2019-05-18T10:18:25.262Z,22.00
2019-05-18T10:21:15.539Z,21.90
2019-05-18T10:24:06.619Z,21.70
2019-05-18T10:26:57.236Z,21.60
2019-05-18T10:29:47.296Z,21.70
2019-05-18T10:32:37.250Z,21.50
2019-05-18T10:35:27.220Z,21.50
2019-05-18T10:38:16.682Z,21.50
2019-05-18T10:41:06.450Z,21.50
2019-05-18T10:43:56.210Z,21.50
2019-05-18T10:46:46.384Z,21.40
2019-05-18T10:49:36.084Z,21.50
2019-05-18T10:52:25.163Z,21.50
2019-05-18T10:55:14.880Z,21.30
2019-05-18T10:58:04.499Z,21.40
2019-05-18T11:00:54.896Z,21.50
2019-05-18T11:03:45.444Z,21.50
2019-05-18T11:06:35.099Z,21.50
2019-05-18T11:09:26.098Z,21.50
2019-05-18T11:12:18.323Z,21.50
2019-05-18T11:15:12.179Z,21.50
2019-05-18T11:18:03.624Z,21.60
2019-05-18T11:20:53.568Z,21.70
2019-05-18T11:23:47.481Z,21.70
2019-05-18T11:26:37.308Z,21.80
2019-05-18T11:29:26.365Z,21.70
2019-05-18T11:32:16.268Z,21.70
2019-05-18T11:35:06.834Z,21.60
2019-05-18T11:37:56.880Z,21.60
2019-05-18T11:40:50.189Z,21.70
2019-05-18T11:43:41.476Z,21.70
2019-05-18T11:46:32.046Z,21.70
2019-05-18T11:49:23.026Z,21.60
2019-05-18T11:52:12.474Z,21.70
2019-05-18T11:55:01.563Z,21.60
2019-05-18T11:57:51.514Z,21.60
2019-05-18T12:00:47.417Z,21.60
2019-05-18T12:03:38.488Z,21.70
2019-05-18T12:06:29.790Z,21.40
2019-05-18T12:09:19.687Z,21.60
2019-05-18T12:12:10.946Z,21.70
2019-05-18T12:15:01.670Z,21.80
2019-05-18T12:17:53.124Z,21.70
2019-05-18T12:20:42.086Z,21.50
2019-05-18T12:23:32.459Z,21.40
2019-05-18T12:26:21.980Z,21.30
2019-05-18T12:29:11.407Z,21.20
2019-05-18T12:32:02.404Z,21.20
2019-05-18T12:34:52.618Z,21.30
2019-05-18T12:37:48.867Z,21.30
2019-05-18T12:40:38.819Z,21.30
2019-05-18T12:43:29.938Z,21.20
2019-05-18T12:46:20.873Z,21.10
2019-05-18T12:49:10.629Z,21.10
2019-05-18T12:52:00.253Z,21.00
2019-05-18T12:54:49.894Z,21.00
2019-05-18T12:57:39.061Z,21.20
2019-05-18T13:03:31.506Z,21.30
2019-05-18T13:06:21.108Z,21.30
2019-05-18T13:09:11.191Z,21.20
2019-05-18T13:12:01.821Z,21.20
2019-05-18T13:14:51.608Z,21.40
2019-05-18T13:17:48.438Z,21.50
2019-05-18T13:20:37.948Z,21.50
2019-05-18T13:23:28.456Z,21.60
2019-05-18T13:26:18.016Z,21.60
2019-05-18T13:29:08.079Z,21.60
2019-05-18T13:31:58.009Z,21.50
2019-05-18T13:34:47.777Z,21.40
2019-05-18T13:37:36.963Z,21.40
2019-05-18T13:40:26.354Z,21.40
2019-05-18T13:43:16.753Z,21.40
2019-05-18T13:46:07.171Z,21.50
2019-05-18T13:48:56.899Z,21.50
2019-05-18T13:51:46.495Z,21.50
2019-05-18T13:54:35.247Z,21.50
2019-05-18T13:57:24.547Z,21.40
2019-05-18T14:00:14.050Z,21.40
2019-05-18T14:06:01.147Z,21.30
2019-05-18T14:08:55.607Z,21.30
2019-05-18T14:11:45.843Z,21.30
2019-05-18T14:14:35.420Z,21.30
2019-05-18T14:17:25.625Z,21.30
2019-05-18T14:20:16.931Z,21.30
2019-05-18T14:23:07.836Z,21.20
2019-05-18T14:25:56.890Z,21.20
2019-05-18T14:28:47.284Z,21.10
2019-05-18T14:31:37.137Z,21.10
2019-05-18T14:34:27.363Z,21.10
2019-05-18T14:37:16.566Z,21.10
2019-05-18T14:40:08.863Z,21.00
2019-05-18T14:42:59.586Z,21.10
2019-05-18T14:45:49.289Z,21.00
2019-05-18T14:48:40.374Z,21.00
2019-05-18T14:51:30.275Z,21.00
2019-05-18T14:54:24.658Z,21.00
2019-05-18T14:57:10.743Z,21.00
2019-05-18T15:00:02.361Z,21.00
2019-05-18T15:03:00.143Z,21.10
2019-05-18T15:05:51.243Z,21.20
2019-05-18T15:08:41.530Z,21.50
2019-05-18T15:11:31.583Z,21.60
2019-05-18T15:14:21.386Z,21.40
2019-05-18T15:17:11.929Z,21.30
2019-05-18T15:20:03.173Z,21.30
2019-05-18T15:22:54.231Z,21.20
2019-05-18T15:25:50.682Z,21.20
2019-05-18T15:28:36.780Z,21.10
2019-05-18T15:31:26.415Z,21.10
2019-05-18T15:34:16.135Z,21.00
2019-05-18T15:37:05.559Z,21.00
2019-05-18T15:39:55.333Z,21.00
2019-05-18T15:42:46.095Z,20.90
2019-05-18T15:45:35.958Z,20.90
2019-05-18T15:48:25.855Z,20.90
2019-05-18T15:51:16.676Z,21.00
2019-05-18T15:54:05.372Z,21.00
2019-05-18T15:56:54.732Z,21.10
2019-05-18T15:59:44.425Z,21.10
2019-05-18T16:02:45.412Z,21.10
2019-05-18T16:05:35.396Z,21.10
2019-05-18T16:08:25.387Z,21.10
2019-05-18T16:11:15.279Z,21.10
2019-05-18T16:14:05.410Z,21.10
2019-05-18T16:16:55.329Z,21.10
2019-05-18T16:19:47.414Z,21.10
2019-05-18T16:22:37.570Z,21.10
2019-05-18T16:25:27.567Z,21.10
2019-05-18T16:28:18.394Z,21.10
2019-05-18T16:31:07.318Z,21.10
2019-05-18T16:33:57.922Z,21.10
2019-05-18T16:36:47.691Z,21.00
2019-05-18T16:39:37.912Z,21.00
2019-05-18T16:42:27.882Z,21.00
2019-05-18T16:45:17.770Z,20.90
2019-05-18T16:48:06.459Z,20.90
2019-05-18T16:50:56.027Z,20.90
2019-05-18T16:53:49.459Z,20.90
2019-05-18T16:56:36.764Z,20.90
2019-05-18T16:59:26.357Z,20.80
2019-05-18T17:02:30.806Z,20.80
2019-05-18T17:05:09.621Z,20.70
2019-05-18T17:08:00.605Z,20.70
2019-05-18T17:10:56.558Z,20.70
2019-05-18T17:13:45.852Z,20.60
2019-05-18T17:16:35.902Z,20.60
2019-05-18T17:19:26.519Z,20.60
2019-05-18T17:22:17.698Z,20.50
2019-05-18T17:25:08.155Z,20.50
2019-05-18T17:27:58.938Z,20.40
2019-05-18T17:30:49.499Z,20.40
2019-05-18T17:33:39.848Z,20.40
2019-05-18T17:36:29.912Z,20.40
2019-05-18T17:39:18.827Z,20.30
2019-05-18T17:42:10.460Z,20.30
2019-05-18T17:44:59.863Z,20.20
2019-05-18T17:47:49.070Z,20.20
2019-05-18T17:50:38.627Z,20.10
2019-05-18T17:53:27.624Z,20.10
2019-05-18T17:56:16.818Z,20.10
2019-05-18T17:59:06.346Z,20.00
2019-05-18T18:01:56.591Z,20.00
2019-05-18T18:04:47.538Z,19.90
2019-05-18T18:07:38.016Z,19.80
2019-05-18T18:10:28.580Z,19.80
2019-05-18T18:13:21.020Z,19.70
2019-05-18T18:16:10.946Z,19.70
2019-05-18T18:19:01.156Z,19.60
2019-05-18T18:21:50.943Z,19.60
2019-05-18T18:24:42.019Z,19.50
2019-05-18T18:27:33.051Z,19.50
2019-05-18T18:30:22.685Z,19.40
2019-05-18T18:33:13.120Z,19.40
2019-05-18T18:36:02.859Z,19.30
2019-05-18T18:38:52.386Z,19.20
2019-05-18T18:41:42.275Z,19.10
2019-05-18T18:44:33.724Z,19.00
2019-05-18T18:47:23.050Z,19.00
2019-05-18T18:50:12.988Z,18.90
2019-05-18T18:53:02.630Z,18.80
2019-05-18T18:55:52.018Z,18.70
2019-05-18T18:58:41.975Z,18.70
2019-05-18T19:01:32.335Z,18.60
2019-05-18T19:04:22.993Z,18.40
2019-05-18T19:07:12.736Z,18.40
2019-05-18T19:10:03.162Z,18.30
2019-05-18T19:12:53.138Z,18.20
2019-05-18T19:15:42.988Z,18.10
2019-05-18T19:18:32.660Z,18.10
2019-05-18T19:21:27.255Z,18.00
2019-05-18T19:24:16.691Z,17.90
2019-05-18T19:27:07.331Z,17.80
2019-05-18T19:29:56.239Z,17.70
2019-05-18T19:32:46.114Z,17.60
2019-05-18T19:35:35.488Z,17.60
2019-05-18T19:38:26.924Z,17.50
2019-05-18T19:41:16.175Z,17.40
2019-05-18T19:44:05.634Z,17.40
2019-05-18T19:46:55.245Z,17.30
2019-05-18T19:49:45.026Z,17.20
2019-05-18T19:52:33.525Z,17.10
2019-05-18T19:55:23.248Z,17.00
2019-05-18T19:58:11.882Z,17.00
2019-05-18T20:01:02.593Z,16.90
2019-05-18T20:03:53.458Z,16.90
2019-05-18T20:06:43.295Z,16.90
2019-05-18T20:09:32.915Z,16.80
2019-05-18T20:15:10.013Z,16.60
2019-05-18T20:17:59.958Z,16.60
2019-05-18T20:20:49.899Z,16.60
2019-05-18T20:23:39.944Z,16.50
2019-05-18T20:26:35.247Z,16.50
2019-05-18T20:29:25.090Z,16.40
2019-05-18T20:32:14.699Z,16.30
2019-05-18T20:35:04.154Z,16.30
2019-05-18T20:37:54.137Z,16.20
2019-05-18T20:43:39.358Z,16.10
2019-05-18T20:46:30.147Z,16.10
2019-05-18T20:49:19.331Z,16.10
2019-05-18T20:52:09.491Z,16.10
2019-05-18T20:55:06.171Z,16.00
2019-05-18T20:57:56.651Z,15.90
2019-05-18T21:00:51.510Z,15.90
2019-05-18T21:03:42.621Z,15.90
2019-05-18T21:06:35.745Z,15.80
2019-05-18T21:09:29.264Z,15.80
2019-05-18T21:12:20.011Z,15.70
2019-05-18T21:15:11.107Z,15.70
2019-05-18T21:18:01.418Z,15.60
2019-05-18T21:20:52.438Z,15.60
2019-05-18T21:23:42.737Z,15.50
2019-05-18T21:26:38.558Z,15.50
2019-05-18T21:29:28.451Z,15.50
2019-05-18T21:32:17.799Z,15.60
2019-05-18T21:35:07.989Z,15.50
2019-05-18T21:37:57.862Z,15.50
2019-05-18T21:40:47.288Z,15.50
2019-05-18T21:43:37.867Z,15.60
2019-05-18T21:46:28.607Z,15.50
2019-05-18T21:49:17.631Z,15.50
2019-05-18T21:52:08.022Z,15.40
2019-05-18T21:54:56.643Z,15.50
2019-05-18T21:57:46.647Z,15.50
2019-05-18T22:00:41.685Z,15.50
2019-05-18T22:03:33.958Z,15.50
2019-05-18T22:06:23.640Z,15.50
2019-05-18T22:09:13.816Z,15.50
2019-05-18T22:12:03.524Z,15.60
2019-05-18T22:14:52.799Z,15.60
2019-05-18T22:18:01.644Z,15.50
2019-05-18T22:20:53.238Z,15.50
2019-05-18T22:23:44.267Z,15.40
2019-05-18T22:26:38.902Z,15.40
2019-05-18T22:29:28.640Z,15.40
2019-05-18T22:32:18.645Z,15.50
2019-05-18T22:35:07.318Z,15.50
2019-05-18T22:37:57.080Z,15.50
2019-05-18T22:40:46.704Z,15.50
2019-05-18T22:43:37.249Z,15.60
2019-05-18T22:46:27.181Z,15.60
2019-05-18T22:49:15.963Z,15.60
2019-05-18T22:52:05.998Z,15.60
2019-05-18T22:55:01.165Z,15.60
2019-05-18T22:57:52.329Z,15.60
2019-05-18T23:00:49.872Z,15.60
2019-05-18T23:03:42.220Z,15.60
2019-05-18T23:06:32.335Z,15.50
2019-05-18T23:09:22.429Z,15.50
2019-05-18T23:12:12.787Z,15.50
2019-05-18T23:15:01.754Z,15.40
2019-05-18T23:17:59.627Z,15.40
2019-05-18T23:20:49.764Z,15.40
2019-05-18T23:23:40.502Z,15.40
2019-05-18T23:26:35.731Z,15.30
2019-05-18T23:29:25.296Z,15.30
2019-05-18T23:32:14.999Z,15.40
2019-05-18T23:35:05.023Z,15.50
2019-05-18T23:37:54.813Z,15.40
2019-05-18T23:40:43.740Z,15.40
2019-05-18T23:43:34.089Z,15.40
2019-05-18T23:46:24.579Z,15.30
2019-05-18T23:49:14.072Z,15.20
2019-05-18T23:52:03.377Z,15.20
2019-05-18T23:54:54.165Z,15.20
2019-05-18T23:57:44.931Z,15.10
